Time;durP1;ratioP1;P1;durP2;ratioP2;P2;SDS_P1;SDS_P2;PMS_P1;PMS_P2;Temp;Humidity;BMP_temperature;BMP_pressure;BME280_temperature;BME280_humidity;BME280_pressure;Samples;Min_cycle;Max_cycle;Signal;HPM_P1;HPM_P2
2023/08/23 00:01:58;;;;;;;7.72;6.07;;;32.60;99.90;;;;;;4999975;23;20185;-54
2023/08/23 00:04:24;;;;;;;7.10;5.50;;;32.60;99.90;;;;;;4993102;28;20050;-55
2023/08/23 00:06:50;;;;;;;7.75;6.38;;;32.60;99.90;;;;;;4994234;28;20077;-56
2023/08/23 00:09:16;;;;;;;8.45;5.72;;;32.60;99.90;;;;;;4994036;28;20030;-56
2023/08/23 00:11:43;;;;;;;7.93;6.22;;;32.60;99.90;;;;;;4994025;28;20442;-55
2023/08/23 00:14:08;;;;;;;6.63;5.85;;;32.50;99.90;;;;;;4993968;28;20035;-54
2023/08/23 00:16:34;;;;;;;7.93;5.40;;;32.50;99.90;;;;;;4993978;28;20029;-54
2023/08/23 00:19:00;;;;;;;10.13;5.95;;;32.50;99.90;;;;;;4993822;28;20496;-55
2023/08/23 00:21:27;;;;;;;8.45;6.10;;;32.50;99.90;;;;;;4993959;28;20549;-55
2023/08/23 00:23:53;;;;;;;6.55;5.20;;;32.50;99.90;;;;;;4994018;28;20027;-54
2023/08/23 00:26:19;;;;;;;6.65;5.55;;;32.50;99.90;;;;;;4993722;28;20502;-54
2023/08/23 00:28:45;;;;;;;7.45;5.55;;;32.50;99.90;;;;;;4992387;28;20035;-54
2023/08/23 00:31:11;;;;;;;7.63;5.75;;;32.50;99.90;;;;;;4993682;28;20039;-54
2023/08/23 00:33:36;;;;;;;7.93;5.95;;;32.50;99.90;;;;;;4993673;28;20481;-54
2023/08/23 00:36:02;;;;;;;13.73;6.32;;;32.50;99.90;;;;;;4993597;28;20031;-55
2023/08/23 00:38:28;;;;;;;8.90;5.47;;;32.50;99.90;;;;;;4992332;28;20029;-54
2023/08/23 00:40:54;;;;;;;8.23;5.93;;;32.50;99.90;;;;;;4993735;28;20034;-55
2023/08/23 00:43:20;;;;;;;7.72;5.80;;;32.50;99.90;;;;;;4993476;28;20081;-54
2023/08/23 00:45:45;;;;;;;6.72;5.43;;;32.50;99.90;;;;;;4993371;28;20494;-54
2023/08/23 00:48:12;;;;;;;6.72;5.30;;;32.50;99.90;;;;;;4993421;28;20029;-55
2023/08/23 00:50:40;;;;;;;7.15;5.70;;;32.50;99.90;;;;;;4993456;28;20030;-55
2023/08/23 00:53:08;;;;;;;7.88;5.25;;;32.50;99.90;;;;;;4993264;28;20033;-55
2023/08/23 00:55:35;;;;;;;7.78;6.00;;;32.40;99.90;;;;;;4993376;28;20415;-55
2023/08/23 00:58:01;;;;;;;;;;;32.40;99.90;;;;;;4993784;28;20514;-55
2023/08/23 01:00:28;;;;;;;6.60;5.90;;;32.40;99.90;;;;;;4993757;28;19912;-54
2023/08/23 01:02:53;;;;;;;6.85;5.70;;;32.40;99.90;;;;;;4993331;28;20109;-55
2023/08/23 01:05:25;;;;;;;8.57;5.82;;;32.50;99.90;;;;;;4992582;28;20027;-56
2023/08/23 01:07:57;;;;;;;7.40;5.78;;;32.40;99.90;;;;;;4993091;28;20037;-56
2023/08/23 01:10:34;;;;;;;7.80;5.57;;;32.40;99.90;;;;;;4993172;28;20525;-56
2023/08/23 01:13:14;;;;;;;7.80;6.03;;;32.40;99.90;;;;;;4993040;28;20072;-56
2023/08/23 01:15:41;;;;;;;7.90;6.18;;;32.40;99.90;;;;;;4991632;28;20066;-55
2023/08/23 01:18:07;;;;;;;7.25;5.97;;;32.40;99.90;;;;;;4993067;28;20018;-56
2023/08/23 01:20:34;;;;;;;8.10;6.43;;;32.40;99.90;;;;;;4993085;28;20518;-55
2023/08/23 01:23:13;;;;;;;8.32;6.63;;;32.40;99.90;;;;;;4993005;28;20030;-55
2023/08/23 01:25:50;;;;;;;8.05;6.78;;;32.40;99.90;;;;;;4992886;28;20041;-55
2023/08/23 01:28:16;;;;;;;8.40;6.20;;;32.40;99.90;;;;;;4992944;28;20073;-55
2023/08/23 01:30:43;;;;;;;8.07;6.55;;;32.40;99.90;;;;;;4992991;28;20489;-54
2023/08/23 01:33:26;;;;;;;9.38;7.03;;;32.40;99.90;;;;;;4992936;28;20030;-54
2023/08/23 01:36:02;;;;;;;9.02;6.93;;;32.30;99.90;;;;;;4992849;28;20380;-56
2023/08/23 01:38:30;;;;;;;10.32;7.53;;;32.40;99.90;;;;;;4992914;28;20037;-56
2023/08/23 01:40:56;;;;;;;8.65;7.32;;;32.40;99.90;;;;;;4991639;28;20026;-56
2023/08/23 01:43:22;;;;;;;9.43;7.70;;;32.30;99.90;;;;;;4992951;28;20402;-56
2023/08/23 01:45:48;;;;;;;10.45;7.53;;;32.30;99.90;;;;;;4992788;28;20027;-56
2023/08/23 01:48:14;;;;;;;11.68;8.38;;;32.30;99.90;;;;;;4991405;28;20177;-56
2023/08/23 01:50:43;;;;;;;10.10;7.80;;;32.30;99.90;;;;;;4992911;28;20510;-56
2023/08/23 01:53:08;;;;;;;9.38;7.93;;;32.30;99.90;;;;;;4992754;28;20120;-57
2023/08/23 01:55:34;;;;;;;12.75;8.27;;;32.30;99.90;;;;;;4992886;28;20479;-56
2023/08/23 01:58:00;;;;;;;10.85;8.00;;;32.30;99.90;;;;;;4992836;28;20035;-56
2023/08/23 02:00:26;;;;;;;9.95;7.72;;;32.30;99.90;;;;;;5004583;23;20017;-47
2023/08/23 02:02:51;;;;;;;11.52;7.72;;;32.30;99.90;;;;;;4992323;28;20133;-47
2023/08/23 02:05:17;;;;;;;11.00;8.70;;;32.30;99.90;;;;;;4991123;28;20019;-47
2023/08/23 02:07:43;;;;;;;10.80;7.88;;;32.30;99.90;;;;;;4992411;28;20031;-47
2023/08/23 02:10:09;;;;;;;10.05;8.30;;;32.20;99.90;;;;;;4992675;28;20029;-46
2023/08/23 02:12:34;;;;;;;10.82;7.50;;;32.30;99.90;;;;;;4992480;28;20050;-47
2023/08/23 02:15:00;;;;;;;9.55;7.80;;;32.20;99.90;;;;;;4992731;28;20433;-47
2023/08/23 02:17:26;;;;;;;12.63;8.10;;;32.20;99.90;;;;;;4993426;28;20101;-47
2023/08/23 02:19:52;;;;;;;9.95;7.80;;;32.20;99.90;;;;;;4996037;28;20037;-46
2023/08/23 02:22:17;;;;;;;9.48;7.35;;;32.20;99.90;;;;;;4996209;28;20065;-46
2023/08/23 02:24:43;;;;;;;10.57;7.78;;;32.20;99.90;;;;;;4996065;28;20062;-47
2023/08/23 02:27:09;;;;;;;11.57;8.00;;;32.20;99.90;;;;;;4995976;28;20141;-47
2023/08/23 02:29:34;;;;;;;8.80;7.70;;;32.20;99.90;;;;;;4995868;28;20030;-47
2023/08/23 02:32:00;;;;;;;10.63;8.18;;;32.20;99.90;;;;;;4996156;28;20106;-46
2023/08/23 02:34:26;;;;;;;10.30;7.55;;;32.20;99.90;;;;;;4996334;28;20023;-46
2023/08/23 02:36:52;;;;;;;11.23;7.80;;;32.20;99.90;;;;;;4995869;28;20030;-46
2023/08/23 02:39:19;;;;;;;12.38;8.27;;;32.20;99.90;;;;;;4994688;28;20061;-46
2023/08/23 02:41:44;;;;;;;9.90;7.97;;;32.20;99.90;;;;;;4995800;28;20033;-46
2023/08/23 02:44:10;;;;;;;10.35;7.88;;;32.20;99.90;;;;;;4995704;28;20031;-46
2023/08/23 02:46:36;;;;;;;11.10;7.72;;;32.20;99.90;;;;;;4995491;28;20045;-46
2023/08/23 02:49:01;;;;;;;10.27;7.55;;;32.10;99.90;;;;;;4995747;28;20026;-46
2023/08/23 02:51:27;;;;;;;10.73;7.95;;;32.10;99.90;;;;;;4995838;28;20034;-46
2023/08/23 02:53:53;;;;;;;10.00;8.07;;;32.10;99.90;;;;;;4995518;28;20426;-46
2023/08/23 02:56:19;;;;;;;9.73;7.97;;;32.10;99.90;;;;;;4995389;28;20080;-46
2023/08/23 02:58:44;;;;;;;10.43;8.05;;;32.10;99.90;;;;;;4994353;28;20023;-46
2023/08/23 03:01:10;;;;;;;7.97;7.00;;;32.10;99.90;;;;;;5007010;23;20058;-56
2023/08/23 03:03:36;;;;;;;10.02;7.78;;;32.10;99.90;;;;;;4995472;28;20026;-55
2023/08/23 03:06:02;;;;;;;8.77;7.53;;;32.10;99.90;;;;;;4995501;28;20034;-57
2023/08/23 03:08:27;;;;;;;9.93;7.78;;;32.10;99.90;;;;;;4995454;28;20364;-56
2023/08/23 03:11:07;;;;;;;11.60;8.20;;;32.10;99.90;;;;;;4995144;28;20061;-55
2023/08/23 03:13:33;;;;;;;11.02;7.55;;;32.10;99.90;;;;;;4995337;28;20057;-55
2023/08/23 03:16:00;;;;;;;10.87;8.30;;;32.10;99.90;;;;;;4995068;28;20535;-55
2023/08/23 03:18:26;;;;;;;7.97;6.90;;;32.10;99.90;;;;;;4995150;28;20058;-56
2023/08/23 03:20:52;;;;;;;9.57;7.13;;;32.10;99.90;;;;;;4995047;28;20026;-55
2023/08/23 03:23:19;;;;;;;9.23;7.63;;;32.00;99.90;;;;;;4994949;28;20041;-55
2023/08/23 03:25:46;;;;;;;10.52;7.88;;;32.00;99.90;;;;;;4994975;28;20513;-54
2023/08/23 03:28:15;;;;;;;10.13;7.80;;;32.00;99.90;;;;;;4994288;28;20493;-54
2023/08/23 03:30:41;;;;;;;9.45;7.15;;;32.00;99.90;;;;;;4994875;28;20026;-55
2023/08/23 03:33:07;;;;;;;10.00;7.07;;;32.00;99.90;;;;;;4994951;28;20061;-54
2023/08/23 03:35:33;;;;;;;11.05;8.18;;;32.00;99.90;;;;;;4995053;28;20022;-54
2023/08/23 03:37:59;;;;;;;10.93;7.90;;;32.00;99.90;;;;;;4994708;28;20045;-53
2023/08/23 03:40:25;;;;;;;11.35;7.78;;;32.00;99.90;;;;;;4994700;28;20109;-54
2023/08/23 03:42:51;;;;;;;9.13;7.43;;;32.00;99.90;;;;;;4994595;28;20026;-55
2023/08/23 03:45:18;;;;;;;10.13;7.32;;;32.00;99.90;;;;;;4994569;28;20534;-55
2023/08/23 03:47:44;;;;;;;10.52;7.47;;;32.00;99.90;;;;;;4993250;28;20117;-55
2023/08/23 03:50:11;;;;;;;9.57;7.13;;;32.00;99.90;;;;;;4994435;28;20379;-54
2023/08/23 03:52:37;;;;;;;11.88;8.18;;;32.00;99.90;;;;;;4994545;28;20027;-54
2023/08/23 03:55:03;;;;;;;11.18;7.93;;;32.00;99.90;;;;;;4994680;28;20430;-54
2023/08/23 03:57:29;;;;;;;11.63;7.15;;;32.00;99.90;;;;;;4994291;28;20031;-55
2023/08/23 03:59:55;;;;;;;9.02;6.40;;;32.00;99.90;;;;;;4994549;28;20031;-55
2023/08/23 04:02:20;;;;;;;12.90;7.63;;;32.00;99.90;;;;;;4994681;28;20529;-55
2023/08/23 04:04:46;;;;;;;9.68;6.97;;;32.00;99.90;;;;;;4994217;28;20030;-53
2023/08/23 04:07:15;;;;;;;9.48;6.85;;;31.90;99.90;;;;;;4994106;28;20037;-55
2023/08/23 04:09:41;;;;;;;8.80;6.88;;;31.90;99.90;;;;;;4994190;28;20019;-55
2023/08/23 04:12:07;;;;;;;9.48;7.30;;;31.90;99.90;;;;;;4994185;28;20426;-55
2023/08/23 04:14:33;;;;;;;10.35;7.05;;;31.90;99.90;;;;;;4994375;28;20042;-55
2023/08/23 04:16:59;;;;;;;8.43;6.78;;;31.90;99.90;;;;;;4994208;28;20066;-55
2023/08/23 04:19:26;;;;;;;11.35;6.82;;;31.90;99.90;;;;;;4994041;28;20018;-55
2023/08/23 04:21:52;;;;;;;11.00;8.20;;;31.90;99.90;;;;;;4994014;28;20049;-55
2023/08/23 04:24:17;;;;;;;9.65;7.03;;;31.90;99.90;;;;;;4993836;28;20472;-54
2023/08/23 04:26:43;;;;;;;9.73;7.47;;;31.90;99.90;;;;;;4993698;28;20042;-55
2023/08/23 04:29:09;;;;;;;10.07;6.90;;;31.90;99.90;;;;;;4993681;28;20022;-55
2023/08/23 04:31:35;;;;;;;11.88;7.78;;;31.90;99.90;;;;;;4993954;28;20057;-54
2023/08/23 04:34:02;;;;;;;9.43;7.40;;;31.90;99.90;;;;;;4993665;28;20387;-54
2023/08/23 04:36:28;;;;;;;14.15;8.23;;;31.90;99.90;;;;;;4993505;28;20026;-54
2023/08/23 04:38:54;;;;;;;9.95;7.32;;;31.90;99.90;;;;;;4992846;28;20037;-55
2023/08/23 04:41:20;;;;;;;9.82;7.30;;;31.90;99.90;;;;;;4993375;28;20030;-55
2023/08/23 04:43:46;;;;;;;11.10;7.93;;;31.80;99.90;;;;;;4993585;28;20022;-54
2023/08/23 04:46:11;;;;;;;9.68;7.30;;;31.90;99.90;;;;;;4992136;28;20035;-55
2023/08/23 04:48:37;;;;;;;11.48;7.20;;;31.90;99.90;;;;;;4993560;28;20467;-54
2023/08/23 04:51:05;;;;;;;8.63;6.90;;;31.80;99.90;;;;;;4993481;28;20045;-54
2023/08/23 04:53:31;;;;;;;12.13;7.82;;;31.80;99.90;;;;;;4993201;28;20034;-55
2023/08/23 04:55:58;;;;;;;14.75;8.23;;;31.80;99.90;;;;;;4993173;28;20023;-55
2023/08/23 04:58:27;;;;;;;;;;;31.80;99.90;;;;;;4993696;28;20041;-55
2023/08/23 05:00:54;;;;;;;12.50;7.43;;;31.80;99.90;;;;;;4992817;28;19914;-54
2023/08/23 05:03:21;;;;;;;10.25;7.63;;;31.80;99.90;;;;;;4993193;28;20030;-55
2023/08/23 05:05:46;;;;;;;9.30;7.10;;;31.80;99.90;;;;;;4993050;28;20034;-55
2023/08/23 05:08:12;;;;;;;8.55;6.63;;;31.80;99.90;;;;;;4993067;28;20029;-56
2023/08/23 05:10:38;;;;;;;9.00;6.32;;;31.80;99.90;;;;;;4993335;28;20022;-56
2023/08/23 05:13:05;;;;;;;11.60;7.00;;;31.80;99.90;;;;;;4993281;28;20069;-57
2023/08/23 05:15:30;;;;;;;11.88;7.07;;;31.80;99.90;;;;;;4993041;28;20058;-56
2023/08/23 05:17:58;;;;;;;10.38;7.15;;;31.80;99.90;;;;;;4992965;28;20065;-56
2023/08/23 05:20:23;;;;;;;;;;;31.80;99.90;;;;;;4993500;28;20029;-56
2023/08/23 05:22:49;;;;;;;10.00;7.00;;;31.80;99.90;;;;;;4993017;28;20000;-56
2023/08/23 05:25:15;;;;;;;8.80;6.80;;;31.80;99.90;;;;;;4992749;28;20022;-56
2023/08/23 05:27:41;;;;;;;9.27;7.10;;;31.80;99.90;;;;;;4992981;28;20081;-56
2023/08/23 05:30:08;;;;;;;8.40;5.93;;;31.80;99.90;;;;;;4993120;28;20027;-55
2023/08/23 05:32:34;;;;;;;;;;;31.70;99.90;;;;;;4993200;28;20471;-56
2023/08/23 05:34:59;;;;;;;8.07;5.43;;;31.70;99.90;;;;;;4992881;28;19905;-55
2023/08/23 05:37:25;;;;;;;9.50;6.22;;;31.70;99.90;;;;;;4992654;28;20034;-56
2023/08/23 05:39:51;;;;;;;8.93;6.55;;;31.70;99.90;;;;;;4993093;28;20030;-56
2023/08/23 05:42:17;;;;;;;10.00;6.82;;;31.70;99.90;;;;;;4992661;28;20113;-55
2023/08/23 05:44:42;;;;;;;8.60;6.00;;;31.70;99.90;;;;;;4992776;28;20041;-57
2023/08/23 05:47:08;;;;;;;8.88;5.82;;;31.70;99.90;;;;;;4992874;28;20040;-57
2023/08/23 05:49:34;;;;;;;6.70;5.75;;;31.70;99.90;;;;;;4991429;28;20483;-55
2023/08/23 05:52:00;;;;;;;10.95;6.35;;;31.70;99.90;;;;;;4996022;28;20391;-54
2023/08/23 05:54:25;;;;;;;11.02;6.60;;;31.70;99.90;;;;;;4996515;28;20034;-54
2023/08/23 05:56:51;;;;;;;7.95;5.50;;;31.70;99.90;;;;;;4996549;28;20022;-54
2023/08/23 05:59:17;;;;;;;8.15;5.95;;;31.70;99.90;;;;;;4996597;28;20022;-55
2023/08/23 06:01:43;;;;;;;8.02;6.15;;;31.70;99.90;;;;;;4996458;28;20502;-55
2023/08/23 06:04:08;;;;;;;7.70;5.95;;;31.70;99.90;;;;;;4996684;28;20022;-55
2023/08/23 06:06:34;;;;;;;7.47;6.13;;;31.70;99.90;;;;;;4996292;28;20085;-54
2023/08/23 06:09:00;;;;;;;9.73;5.60;;;31.70;99.90;;;;;;4996534;28;20579;-56
2023/08/23 06:11:27;;;;;;;9.65;5.53;;;31.70;99.90;;;;;;4996277;28;20057;-56
2023/08/23 06:13:54;;;;;;;8.10;5.53;;;31.70;99.90;;;;;;4996489;28;20037;-55
2023/08/23 06:16:20;;;;;;;5.93;4.90;;;31.70;99.90;;;;;;4996163;28;20446;-55
2023/08/23 06:18:46;;;;;;;8.05;6.00;;;31.70;99.90;;;;;;4996191;28;20022;-56
2023/08/23 06:21:12;;;;;;;6.90;4.80;;;31.70;99.90;;;;;;4995030;28;20496;-56
2023/08/23 06:23:43;;;;;;;9.00;5.55;;;31.70;99.90;;;;;;4995000;28;20038;-56
2023/08/23 06:26:10;;;;;;;9.05;5.00;;;31.70;99.90;;;;;;4996018;28;20471;-55
2023/08/23 06:28:35;;;;;;;9.65;5.43;;;31.70;99.90;;;;;;4996028;28;20027;-55
2023/08/23 06:31:01;;;;;;;9.50;5.82;;;31.70;99.90;;;;;;4995974;28;20390;-57
2023/08/23 06:33:27;;;;;;;8.45;5.57;;;31.70;99.90;;;;;;4994819;28;20487;-56
2023/08/23 06:35:53;;;;;;;10.43;5.53;;;31.70;99.90;;;;;;4995819;28;20022;-55
2023/08/23 06:38:18;;;;;;;7.80;5.25;;;31.70;99.90;;;;;;4995958;28;20033;-55
2023/08/23 06:40:44;;;;;;;10.57;5.80;;;31.70;99.90;;;;;;4994540;28;20018;-55
2023/08/23 06:43:17;;;;;;;7.82;5.43;;;31.70;99.90;;;;;;4995818;28;20124;-55
2023/08/23 06:45:43;;;;;;;7.55;5.30;;;31.70;99.90;;;;;;4995743;28;20375;-55
2023/08/23 06:48:09;;;;;;;7.10;5.45;;;31.70;99.90;;;;;;4995499;28;20034;-54
2023/08/23 06:50:35;;;;;;;8.63;5.40;;;31.70;99.90;;;;;;4995445;28;20375;-56
2023/08/23 06:53:01;;;;;;;8.18;5.18;;;31.70;99.90;;;;;;4995447;28;20022;-55
2023/08/23 06:55:27;;;;;;;7.07;5.00;;;31.70;99.90;;;;;;4995516;28;20502;-55
2023/08/23 06:57:53;;;;;;;7.78;4.90;;;31.70;99.90;;;;;;4995320;28;20077;-54
2023/08/23 07:00:20;;;;;;;10.30;5.95;;;31.70;99.90;;;;;;4995379;28;20077;-56
2023/08/23 07:02:45;;;;;;;5.03;4.18;;;31.70;99.90;;;;;;4994388;28;20042;-55
2023/08/23 07:05:11;;;;;;;7.45;5.00;;;31.70;99.90;;;;;;4993770;28;20133;-56
2023/08/23 07:07:37;;;;;;;6.28;4.75;;;31.70;99.90;;;;;;4995374;28;20046;-56
2023/08/23 07:10:03;;;;;;;7.43;4.90;;;31.70;99.90;;;;;;4995151;28;20074;-55
2023/08/23 07:12:29;;;;;;;7.60;5.18;;;31.70;99.90;;;;;;4995190;28;20030;-57
2023/08/23 07:14:55;;;;;;;11.60;5.35;;;31.70;99.90;;;;;;4994026;28;20083;-56
2023/08/23 07:17:20;;;;;;;8.75;5.00;;;31.70;99.90;;;;;;4995051;28;20019;-55
2023/08/23 07:19:48;;;;;;;9.10;4.72;;;31.70;99.90;;;;;;4995273;28;20395;-56
2023/08/23 07:22:13;;;;;;;;;;;31.70;99.90;;;;;;4995988;28;20109;-55
2023/08/23 07:24:39;;;;;;;5.60;4.35;;;31.80;99.90;;;;;;4995108;28;20318;-56
2023/08/23 07:27:05;;;;;;;8.98;5.53;;;31.80;99.90;;;;;;4994818;28;20034;-55
2023/08/23 07:29:31;;;;;;;8.15;5.20;;;31.80;99.90;;;;;;4994923;28;20023;-56
2023/08/23 07:31:59;;;;;;;6.45;4.82;;;31.80;99.90;;;;;;4994669;28;20026;-56
2023/08/23 07:34:26;;;;;;;9.07;5.15;;;31.80;99.90;;;;;;4994760;28;20037;-55
2023/08/23 07:36:52;;;;;;;6.22;4.90;;;31.80;99.90;;;;;;4994687;28;20022;-55
2023/08/23 07:39:18;;;;;;;6.55;4.75;;;31.80;99.90;;;;;;4994913;28;20026;-56
2023/08/23 07:41:43;;;;;;;5.55;4.47;;;31.80;99.90;;;;;;4994663;28;20033;-56
2023/08/23 07:44:09;;;;;;;8.05;4.88;;;31.80;99.90;;;;;;4994487;28;20030;-56
2023/08/23 07:46:35;;;;;;;6.78;5.10;;;31.80;99.90;;;;;;4994371;28;20030;-56
2023/08/23 07:49:01;;;;;;;5.90;4.82;;;31.80;99.90;;;;;;4994394;28;20422;-56
2023/08/23 07:51:27;;;;;;;7.05;5.10;;;31.80;99.90;;;;;;4994407;28;20037;-56
2023/08/23 07:53:53;;;;;;;8.25;5.72;;;31.80;99.90;;;;;;4994307;28;20105;-56
2023/08/23 07:56:18;;;;;;;7.57;5.07;;;31.80;99.90;;;;;;4993284;28;20058;-56
2023/08/23 07:58:44;;;;;;;8.30;5.40;;;31.80;99.90;;;;;;4994529;28;20026;-56
2023/08/23 08:01:10;;;;;;;6.72;5.75;;;31.80;99.90;;;;;;4994006;28;20065;-55
2023/08/23 08:03:35;;;;;;;9.88;5.40;;;31.80;99.90;;;;;;4994184;28;20018;-56
2023/08/23 08:06:01;;;;;;;9.60;5.90;;;31.80;99.90;;;;;;4994069;28;20088;-55
2023/08/23 08:08:27;;;;;;;9.32;5.32;;;31.80;99.90;;;;;;4994213;28;20029;-56
2023/08/23 08:10:53;;;;;;;7.80;5.47;;;31.80;99.90;;;;;;4994202;28;20077;-56
2023/08/23 08:13:19;;;;;;;7.72;5.80;;;31.80;99.90;;;;;;4994345;28;20031;-55
2023/08/23 08:15:44;;;;;;;10.35;6.13;;;31.80;99.90;;;;;;4993871;28;20014;-55
2023/08/23 08:18:10;;;;;;;8.35;6.72;;;31.80;99.90;;;;;;4994044;28;20030;-56
2023/08/23 08:20:36;;;;;;;10.10;6.47;;;31.80;99.90;;;;;;4993861;28;20042;-55
2023/08/23 08:23:02;;;;;;;9.98;7.15;;;31.80;99.90;;;;;;4993683;28;20467;-56
2023/08/23 08:25:28;;;;;;;12.95;8.13;;;31.80;99.90;;;;;;4993769;28;20022;-56
2023/08/23 08:27:53;;;;;;;11.57;7.35;;;31.80;99.90;;;;;;4993753;28;20054;-56
2023/08/23 08:30:19;;;;;;;13.35;8.88;;;31.80;99.90;;;;;;4993951;28;20042;-56
2023/08/23 08:32:45;;;;;;;13.02;9.40;;;31.80;99.90;;;;;;4993749;28;20037;-56
2023/08/23 08:35:11;;;;;;;13.35;7.85;;;31.80;99.90;;;;;;4992256;28;20475;-56
2023/08/23 08:37:37;;;;;;;12.95;9.13;;;31.80;99.90;;;;;;4993641;28;20022;-57
2023/08/23 08:40:03;;;;;;;14.65;9.50;;;31.80;99.90;;;;;;4993506;28;20029;-57
2023/08/23 08:42:29;;;;;;;12.43;9.17;;;31.80;99.90;;;;;;4993386;28;20058;-57
2023/08/23 08:44:56;;;;;;;17.02;12.00;;;31.90;99.90;;;;;;4993451;28;20037;-56
2023/08/23 08:47:25;;;;;;;22.38;15.38;;;31.90;99.90;;;;;;4993538;28;20066;-57
2023/08/23 08:49:51;;;;;;;18.77;13.32;;;31.90;99.90;;;;;;4993602;28;20022;-56
2023/08/23 08:52:19;;;;;;;28.15;19.23;;;31.90;99.90;;;;;;4991932;28;20442;-56
2023/08/23 08:54:47;;;;;;;18.25;13.18;;;31.90;99.90;;;;;;4991987;28;20502;-57
2023/08/23 08:57:14;;;;;;;26.02;18.58;;;31.90;99.90;;;;;;4993298;28;20036;-54
2023/08/23 08:59:44;;;;;;;32.75;22.20;;;31.90;99.90;;;;;;4993142;28;20387;-54
2023/08/23 09:02:13;;;;;;;21.55;16.60;;;31.90;99.90;;;;;;4991794;28;20553;-55
2023/08/23 09:04:39;;;;;;;19.65;14.50;;;31.90;99.90;;;;;;4993165;28;20030;-55
2023/08/23 09:07:05;;;;;;;18.63;13.35;;;31.90;99.90;;;;;;4993050;28;20536;-55
2023/08/23 09:09:32;;;;;;;18.10;12.10;;;31.90;99.90;;;;;;4993093;28;20042;-55
2023/08/23 09:11:58;;;;;;;19.33;13.63;;;31.90;99.90;;;;;;4993154;28;20026;-56
2023/08/23 09:14:27;;;;;;;18.23;13.90;;;31.90;99.90;;;;;;4993130;28;20037;-55
2023/08/23 09:16:52;;;;;;;23.83;15.00;;;31.90;99.90;;;;;;4993247;28;20586;-55
2023/08/23 09:19:18;;;;;;;20.60;15.98;;;31.90;99.90;;;;;;4993015;28;20113;-55
2023/08/23 09:21:45;;;;;;;21.50;16.45;;;31.90;99.90;;;;;;4993036;28;20040;-54
2023/08/23 09:24:12;;;;;;;24.33;17.90;;;31.90;99.90;;;;;;4992763;28;20538;-54
2023/08/23 09:26:38;;;;;;;18.90;15.13;;;31.90;99.90;;;;;;4992302;28;20052;-55
2023/08/23 09:29:05;;;;;;;16.42;12.75;;;31.90;99.90;;;;;;4992840;28;20027;-55
2023/08/23 09:31:31;;;;;;;20.10;14.15;;;31.90;99.90;;;;;;4992885;28;20022;-55
2023/08/23 09:33:58;;;;;;;22.00;14.60;;;31.90;99.90;;;;;;4992745;28;20057;-55
2023/08/23 09:36:39;;;;;;;;;;;32.00;99.90;;;;;;4993362;28;20023;-54
2023/08/23 09:39:08;;;;;;;22.25;17.55;;;32.00;99.90;;;;;;4992550;28;20274;-55
2023/08/23 09:41:46;;;;;;;23.20;17.80;;;32.00;99.90;;;;;;4992772;28;20117;-56
2023/08/23 09:44:13;;;;;;;21.30;17.13;;;32.00;99.90;;;;;;4992653;28;20097;-56
2023/08/23 09:46:39;;;;;;;21.35;15.82;;;32.00;99.90;;;;;;4992606;28;20034;-57
2023/08/23 09:49:07;;;;;;;22.33;16.57;;;32.00;99.90;;;;;;4992723;28;20019;-56
2023/08/23 09:51:37;;;;;;;25.20;17.90;;;32.00;99.90;;;;;;4992727;28;20436;-55
2023/08/23 09:54:54;;;;;;;22.20;17.42;;;32.00;99.90;;;;;;4991306;28;20590;-55
2023/08/23 09:57:20;;;;;;;;;;;32.00;99.90;;;;;;4988204;28;20042;-57
2023/08/23 09:59:46;;;;;;;23.40;16.85;;;32.00;99.90;;;;;;4992477;28;20286;-57
2023/08/23 10:02:16;;;;;;;22.52;17.38;;;32.00;99.90;;;;;;4992325;28;20134;-56
2023/08/23 10:04:43;;;;;;;22.23;17.25;;;32.00;99.90;;;;;;4992547;28;20030;-55
2023/08/23 10:07:09;;;;;;;20.38;15.13;;;32.00;99.90;;;;;;4992545;28;20030;-56
2023/08/23 10:09:39;;;;;;;25.42;16.42;;;32.00;99.90;;;;;;4992551;28;20022;-55
2023/08/23 10:12:08;;;;;;;22.70;15.45;;;32.00;99.90;;;;;;4992564;28;20026;-56
2023/08/23 10:14:37;;;;;;;21.85;15.45;;;32.00;99.90;;;;;;4992418;28;20046;-56
2023/08/23 10:17:06;;;;;;;19.02;14.35;;;32.00;99.90;;;;;;4992576;28;20059;-56
2023/08/23 10:19:32;;;;;;;21.00;15.82;;;32.10;99.90;;;;;;4992531;28;20490;-55
2023/08/23 10:21:58;;;;;;;20.77;16.60;;;32.10;99.90;;;;;;4992375;28;20100;-54
2023/08/23 10:24:34;;;;;;;24.50;19.88;;;32.10;99.90;;;;;;4992614;28;20538;-56
2023/08/23 10:27:09;;;;;;;26.02;21.10;;;32.10;99.90;;;;;;4990917;28;20042;-55
2023/08/23 10:29:39;;;;;;;22.13;17.95;;;32.10;99.90;;;;;;4992239;28;20548;-56
2023/08/23 10:32:09;;;;;;;24.75;19.33;;;32.10;99.90;;;;;;4992384;28;20177;-56
2023/08/23 10:34:37;;;;;;;28.63;21.48;;;32.10;99.90;;;;;;4992340;28;20026;-55
2023/08/23 10:37:19;;;;;;;31.95;23.33;;;32.10;99.90;;;;;;4992391;28;20463;-56
2023/08/23 10:39:54;;;;;;;25.85;20.45;;;32.10;99.90;;;;;;4996045;28;20065;-56
2023/08/23 10:42:21;;;;;;;23.65;19.75;;;32.20;99.90;;;;;;4995755;28;20046;-56
2023/08/23 10:44:54;;;;;;;26.33;20.80;;;32.20;99.90;;;;;;4995710;28;20033;-55
2023/08/23 10:47:20;;;;;;;25.60;21.20;;;32.20;99.90;;;;;;4995502;28;20045;-55
2023/08/23 10:49:46;;;;;;;22.27;17.95;;;32.20;99.90;;;;;;4995506;28;20022;-56
2023/08/23 10:52:13;;;;;;;23.83;18.17;;;32.20;99.90;;;;;;4995652;28;20530;-56
2023/08/23 10:54:40;;;;;;;24.90;18.05;;;32.20;99.90;;;;;;4995566;28;20375;-55
2023/08/23 10:57:06;;;;;;;22.00;17.85;;;32.20;99.90;;;;;;4994116;28;20471;-56
2023/08/23 10:59:32;;;;;;;23.58;18.25;;;32.20;99.90;;;;;;4995171;28;20018;-55
2023/08/23 11:01:58;;;;;;;25.58;17.92;;;32.30;99.90;;;;;;4994982;28;20488;-55
2023/08/23 11:04:24;;;;;;;21.08;16.42;;;32.30;99.90;;;;;;4995115;28;20018;-55
2023/08/23 11:06:51;;;;;;;20.23;16.75;;;32.30;99.90;;;;;;4993720;28;20042;-55
2023/08/23 11:09:17;;;;;;;26.42;15.57;;;32.30;99.90;;;;;;4995193;28;20442;-56
2023/08/23 11:11:43;;;;;;;20.02;15.45;;;32.30;99.90;;;;;;4995240;28;20038;-54
2023/08/23 11:14:09;;;;;;;19.30;14.80;;;32.30;99.90;;;;;;4995187;28;20479;-55
2023/08/23 11:16:38;;;;;;;20.83;16.00;;;32.30;99.90;;;;;;4995140;28;20027;-56
2023/08/23 11:19:07;;;;;;;19.65;14.32;;;32.30;99.90;;;;;;4994933;28;20023;-55
2023/08/23 11:21:33;;;;;;;16.38;13.95;;;32.40;99.90;;;;;;4994890;28;20479;-55
2023/08/23 11:24:06;;;;;;;17.20;14.05;;;32.40;99.90;;;;;;4995249;28;20222;-55
2023/08/23 11:26:36;;;;;;;17.13;13.50;;;32.40;99.90;;;;;;4995057;28;20042;-55
2023/08/23 11:29:05;;;;;;;15.02;12.32;;;32.40;99.90;;;;;;4994876;28;20030;-54
2023/08/23 11:31:35;;;;;;;16.92;12.80;;;32.40;99.90;;;;;;4995040;28;20022;-54
2023/08/23 11:34:08;;;;;;;18.73;13.57;;;32.40;99.90;;;;;;4994806;28;20415;-55
2023/08/23 11:36:36;;;;;;;15.55;11.68;;;32.40;99.90;;;;;;4994659;28;20030;-56
2023/08/23 11:39:07;;;;;;;18.13;12.10;;;32.40;99.90;;;;;;4994597;28;20033;-55
2023/08/23 11:41:34;;;;;;;15.40;11.85;;;32.40;99.90;;;;;;4994799;28;20022;-55
2023/08/23 11:44:04;;;;;;;13.00;11.27;;;32.50;99.90;;;;;;4993640;28;20037;-55
2023/08/23 11:46:30;;;;;;;17.02;11.60;;;32.50;99.90;;;;;;4994800;28;20117;-54
2023/08/23 11:48:56;;;;;;;14.27;11.13;;;32.50;99.90;;;;;;4993139;28;20038;-55
2023/08/23 11:51:22;;;;;;;12.65;10.38;;;32.50;99.90;;;;;;4994573;28;20038;-56
2023/08/23 11:53:53;;;;;;;14.95;10.13;;;32.50;99.90;;;;;;4994539;28;20059;-56
2023/08/23 11:56:20;;;;;;;17.13;10.63;;;32.50;99.90;;;;;;4994526;28;20112;-56
2023/08/23 11:58:46;;;;;;;15.20;9.68;;;32.50;99.90;;;;;;4994121;28;20034;-56
2023/08/23 12:01:13;;;;;;;15.35;11.20;;;32.50;99.90;;;;;;4994058;28;20557;-55
2023/08/23 12:03:39;;;;;;;12.15;9.70;;;32.50;99.90;;;;;;4994316;28;20031;-55
2023/08/23 12:06:05;;;;;;;13.23;9.82;;;32.50;99.90;;;;;;4994099;28;20505;-56
2023/08/23 12:08:33;;;;;;;11.23;9.35;;;32.50;99.90;;;;;;4994259;28;20466;-56
2023/08/23 12:10:59;;;;;;;11.27;9.18;;;32.60;99.90;;;;;;4994368;28;20049;-57
2023/08/23 12:13:25;;;;;;;12.55;9.50;;;32.60;99.90;;;;;;4994026;28;20471;-55
2023/08/23 12:15:50;;;;;;;11.68;8.57;;;32.60;99.90;;;;;;4994039;28;20029;-55
2023/08/23 12:18:16;;;;;;;12.35;8.55;;;32.60;99.90;;;;;;4993914;28;20042;-56
2023/08/23 12:20:42;;;;;;;13.95;9.50;;;32.60;99.90;;;;;;4994038;28;20057;-55
2023/08/23 12:23:08;;;;;;;9.95;8.35;;;32.60;99.90;;;;;;4994017;28;20156;-55
2023/08/23 12:25:33;;;;;;;11.88;8.13;;;32.60;99.90;;;;;;4993864;28;20375;-55
2023/08/23 12:27:59;;;;;;;12.35;9.02;;;32.60;99.90;;;;;;4994051;28;20030;-56
2023/08/23 12:30:25;;;;;;;13.35;7.47;;;32.60;99.90;;;;;;4992551;28;20034;-55
2023/08/23 12:32:51;;;;;;;13.10;8.10;;;32.60;99.90;;;;;;4993809;28;20033;-54
2023/08/23 12:35:18;;;;;;;16.23;8.50;;;32.60;99.90;;;;;;4993684;28;20030;-54
2023/08/23 12:37:44;;;;;;;12.05;8.93;;;32.70;99.90;;;;;;4993625;28;20101;-56
2023/08/23 12:40:10;;;;;;;9.90;7.55;;;32.70;99.90;;;;;;4993722;28;20117;-55